Time;durP1;ratioP1;P1;durP2;ratioP2;P2;SDS_P1;SDS_P2;PMS_P1;PMS_P2;Temp;Humidity;BMP_temperature;BMP_pressure;BME280_temperature;BME280_humidity;BME280_pressure;Samples;Min_cycle;Max_cycle;Signal;HPM_P1;HPM_P2
2021/07/26 00:02:42;;;;;;;3.92;1.05;;;;;;;12.79;100.00;99309.78;5133254;27;20046;-75
2021/07/26 00:05:53;;;;;;;2.67;0.90;;;;;;;12.72;100.00;99310.28;5148382;27;20046;-74
2021/07/26 00:08:56;;;;;;;7.75;2.22;;;;;;;12.64;100.00;99304.41;5134485;27;20399;-75
2021/07/26 00:12:00;;;;;;;6.07;1.83;;;;;;;12.63;100.00;99308.47;5132604;27;20537;-75
2021/07/26 00:15:06;;;;;;;5.93;1.58;;;;;;;12.61;100.00;99305.41;5133550;27;20418;-74
2021/07/26 00:18:09;;;;;;;8.90;1.98;;;;;;;12.64;100.00;99310.00;5133238;27;20057;-75
2021/07/26 00:21:13;;;;;;;3.72;1.88;;;;;;;12.63;100.00;99302.09;5133381;27;20046;-74
2021/07/26 00:24:18;;;;;;;7.53;2.22;;;;;;;12.66;100.00;99306.69;5133105;27;20049;-74
2021/07/26 00:27:21;;;;;;;4.97;1.17;;;;;;;12.72;100.00;99299.09;5133181;27;20108;-75
2021/07/26 00:30:25;;;;;;;4.22;0.93;;;;;;;12.74;100.00;99304.94;5132863;27;20066;-75
2021/07/26 00:34:19;;;;;;;4.13;1.58;;;;;;;12.76;100.00;99300.38;5132961;27;20391;-75
2021/07/26 00:37:26;;;;;;;4.90;1.25;;;;;;;12.82;100.00;99303.22;5120243;27;20042;-75
2021/07/26 00:40:30;;;;;;;7.68;1.70;;;;;;;12.85;100.00;99300.16;5132934;27;20042;-75
2021/07/26 00:43:33;;;;;;;5.55;1.67;;;;;;;12.91;100.00;99302.94;5132397;27;20050;-75
2021/07/26 00:46:37;;;;;;;4.72;1.42;;;;;;;12.96;100.00;99302.22;5132693;27;20391;-75
2021/07/26 00:49:40;;;;;;;3.33;1.02;;;;;;;12.92;100.00;99302.47;5132266;27;20120;-75
2021/07/26 00:52:43;;;;;;;9.27;2.28;;;;;;;12.92;100.00;99298.91;5132346;27;20391;-75
2021/07/26 00:55:47;;;;;;;8.70;2.10;;;;;;;12.90;100.00;99304.22;5132592;27;20502;-77
2021/07/26 00:58:51;;;;;;;6.32;1.48;;;;;;;12.93;100.00;99300.41;5132575;27;20088;-75
2021/07/26 01:01:55;;;;;;;8.10;1.45;;;;;;;12.94;100.00;99299.16;5132550;28;20058;-75
2021/07/26 01:04:58;;;;;;;8.90;1.75;;;;;;;12.97;100.00;99297.38;5131384;27;20058;-75
2021/07/26 01:08:02;;;;;;;5.80;1.75;;;;;;;12.98;100.00;99294.06;5132698;28;20565;-75
2021/07/26 01:11:06;;;;;;;6.03;1.60;;;;;;;13.03;100.00;99300.94;5132566;28;20043;-75
2021/07/26 01:14:11;;;;;;;7.30;1.85;;;;;;;13.06;100.00;99302.78;5132482;28;20050;-75
2021/07/26 01:17:25;;;;;;;5.32;1.65;;;;;;;13.10;100.00;99303.28;5131680;28;20062;-75
2021/07/26 01:20:28;;;;;;;6.32;1.73;;;;;;;13.12;100.00;99298.72;5132558;28;20038;-75
2021/07/26 01:23:35;;;;;;;11.38;1.55;;;;;;;13.15;100.00;99302.50;5132349;28;20043;-75
2021/07/26 01:26:38;;;;;;;8.70;1.58;;;;;;;13.18;100.00;99310.66;5132212;28;20054;-75
2021/07/26 01:29:42;;;;;;;6.22;1.80;;;;;;;13.22;100.00;99313.97;5132152;28;20054;-75
2021/07/26 01:32:45;;;;;;;17.77;3.05;;;;;;;13.25;100.00;99312.97;5131957;28;20066;-75
2021/07/26 01:35:49;;;;;;;5.22;1.85;;;;;;;13.28;100.00;99311.94;5111402;28;20050;-75
2021/07/26 01:38:53;;;;;;;3.10;1.15;;;;;;;13.29;100.00;99313.47;5111648;28;20046;-75
2021/07/26 01:41:56;;;;;;;8.05;1.63;;;;;;;13.34;100.00;99315.50;5111005;28;20065;-75
2021/07/26 01:45:00;;;;;;;3.70;1.15;;;;;;;13.33;100.00;99311.19;5111851;28;20043;-75
2021/07/26 01:48:16;;;;;;;4.35;1.15;;;;;;;13.36;100.00;99312.94;5111563;28;20067;-75
2021/07/26 01:51:27;;;;;;;7.10;1.33;;;;;;;13.38;100.00;99312.47;5110478;28;20058;-76
2021/07/26 01:54:31;;;;;;;3.40;1.17;;;;;;;13.40;100.00;99307.91;5111353;28;20070;-76
2021/07/26 01:57:34;;;;;;;5.90;1.20;;;;;;;13.44;100.00;99308.41;5111407;28;20042;-76
2021/07/26 02:00:37;;;;;;;5.20;1.48;;;;;;;13.47;100.00;99312.97;5111259;28;20407;-75
2021/07/26 02:03:40;;;;;;;7.00;1.60;;;;;;;13.51;100.00;99318.31;5111318;28;20050;-75
2021/07/26 02:06:44;;;;;;;6.65;1.48;;;;;;;13.54;100.00;99318.06;5111488;28;20043;-76
2021/07/26 02:09:47;;;;;;;8.23;1.63;;;;;;;13.56;100.00;99309.91;5129455;28;20055;-76
2021/07/26 02:12:50;;;;;;;3.97;1.50;;;;;;;13.62;100.00;99298.72;5112712;28;20054;-76
2021/07/26 02:15:54;;;;;;;13.95;1.83;;;;;;;13.62;100.00;99307.88;5111675;28;20050;-76
2021/07/26 02:18:57;;;;;;;3.15;1.52;;;;;;;13.64;100.00;99304.59;5114769;28;20419;-76
2021/07/26 02:22:01;;;;;;;4.63;1.50;;;;;;;13.65;100.00;99300.50;5115135;28;20050;-75
2021/07/26 02:25:05;;;;;;;5.07;1.35;;;;;;;13.67;100.00;99307.09;5113975;28;20419;-71
2021/07/26 02:28:09;;;;;;;7.20;1.25;;;;;;;13.73;100.00;99317.53;5115229;28;20395;-72
2021/07/26 02:31:12;;;;;;;14.10;1.63;;;;;;;13.77;100.00;99318.03;5115656;28;20047;-72
2021/07/26 02:34:15;;;;;;;5.90;1.27;;;;;;;13.79;100.00;99321.09;5128271;27;20042;-73
2021/07/26 02:37:18;;;;;;;5.25;1.52;;;;;;;13.77;100.00;99318.03;5135889;27;20042;-73
2021/07/26 02:40:22;;;;;;;13.07;2.15;;;;;;;13.80;100.00;99319.81;5135652;27;20053;-72
2021/07/26 02:43:25;;;;;;;8.07;1.38;;;;;;;13.84;100.00;99323.13;5135788;27;20049;-71
2021/07/26 02:46:28;;;;;;;5.78;1.90;;;;;;;13.81;100.00;99313.72;5135740;27;20042;-71
2021/07/26 02:49:32;;;;;;;8.35;1.92;;;;;;;13.81;100.00;99318.53;5134735;27;20525;-72
2021/07/26 02:52:35;;;;;;;9.45;2.78;;;;;;;13.82;100.00;99303.28;5135770;27;20054;-71
2021/07/26 02:55:39;;;;;;;5.82;2.00;;;;;;;13.84;100.00;99320.34;5135785;27;20042;-71
2021/07/26 02:58:42;;;;;;;6.10;2.13;;;;;;;13.84;100.00;99311.94;5135504;27;20462;-75
2021/07/26 03:01:46;;;;;;;7.30;2.58;;;;;;;13.85;100.00;99307.84;5135410;27;20050;-74
2021/07/26 03:04:49;;;;;;;4.10;1.85;;;;;;;13.84;100.00;99306.34;5135539;27;20050;-74
2021/07/26 03:07:52;;;;;;;4.18;1.10;;;;;;;13.85;100.00;99313.44;5135116;27;20042;-74
2021/07/26 03:11:00;;;;;;;5.93;2.08;;;;;;;13.82;100.00;99308.91;5135360;27;20522;-72
2021/07/26 03:14:04;;;;;;;8.57;2.25;;;;;;;13.82;100.00;99309.63;5135203;27;20058;-75
2021/07/26 03:17:07;;;;;;;6.18;2.40;;;;;;;13.82;100.00;99311.69;5135306;27;20392;-75
2021/07/26 03:20:12;;;;;;;8.20;2.50;;;;;;;13.82;100.00;99314.50;5135258;27;20043;-75
2021/07/26 03:23:15;;;;;;;8.65;2.03;;;;;;;13.85;100.00;99303.03;5135197;27;20062;-75
2021/07/26 03:26:19;;;;;;;6.95;2.10;;;;;;;13.87;100.00;99296.91;5135160;27;20050;-75
2021/07/26 03:29:23;;;;;;;5.93;1.52;;;;;;;13.87;100.00;99294.09;5134631;27;20051;-75
2021/07/26 03:32:26;;;;;;;7.40;1.83;;;;;;;13.83;100.00;99294.38;5134799;27;20046;-75
2021/07/26 03:35:29;;;;;;;14.48;2.88;;;;;;;13.84;100.00;99297.94;5114146;28;20502;-75
2021/07/26 03:38:33;;;;;;;6.32;2.22;;;;;;;13.85;100.00;99296.66;5114494;28;20059;-76
2021/07/26 03:41:36;;;;;;;11.57;2.13;;;;;;;13.87;100.00;99288.50;5113033;28;20407;-76
2021/07/26 03:44:40;;;;;;;11.25;2.55;;;;;;;13.90;100.00;99293.09;5113425;28;20046;-76
2021/07/26 03:47:43;;;;;;;8.98;1.88;;;;;;;13.88;100.00;99295.66;5114258;28;20399;-76
2021/07/26 03:50:47;;;;;;;10.65;1.73;;;;;;;13.88;100.00;99290.06;5114097;28;20051;-76
2021/07/26 03:53:51;;;;;;;5.20;2.55;;;;;;;13.88;100.00;99299.19;5119022;28;20054;-77
2021/07/26 03:56:58;;;;;;;8.70;1.77;;;;;;;13.87;100.00;99294.88;5120116;28;20055;-80
2021/07/26 04:00:02;;;;;;;22.98;1.23;;;;;;;13.83;100.00;99291.59;5119795;28;20038;-77
2021/07/26 04:06:28;;;;;;;10.73;2.17;;;;;;;13.73;100.00;99295.91;5120169;28;20043;-77
2021/07/26 04:09:37;;;;;;;10.18;1.55;;;;;;;13.64;100.00;99288.53;5116810;28;20043;-77
2021/07/26 04:12:44;;;;;;;6.32;2.22;;;;;;;13.60;100.00;99281.66;5113321;28;20050;-77
2021/07/26 04:15:49;;;;;;;6.95;1.15;;;;;;;13.53;100.00;99294.16;5128580;28;20556;-76
2021/07/26 04:18:53;;;;;;;8.55;2.72;;;;;;;13.49;100.00;99290.84;5113333;28;20058;-77
2021/07/26 04:21:56;;;;;;;10.25;1.95;;;;;;;13.44;100.00;99294.41;5113521;28;20043;-77
2021/07/26 04:25:01;;;;;;;3.63;1.45;;;;;;;13.43;100.00;99295.66;5113451;28;20050;-77
2021/07/26 04:28:05;;;;;;;6.25;2.20;;;;;;;13.40;100.00;99285.53;5113384;28;20055;-77
2021/07/26 04:31:08;;;;;;;6.28;1.75;;;;;;;13.38;100.00;99299.22;5113106;28;20058;-77
2021/07/26 04:34:12;;;;;;;8.13;2.47;;;;;;;13.33;100.00;99291.63;5116840;27;20042;-77
2021/07/26 04:37:15;;;;;;;4.53;1.90;;;;;;;13.31;100.00;99296.94;5139738;27;20054;-77
2021/07/26 04:40:18;;;;;;;6.45;1.67;;;;;;;13.29;100.00;99296.69;5113088;28;20090;-77
2021/07/26 04:43:23;;;;;;;9.55;1.25;;;;;;;13.28;100.00;99295.16;5114419;28;20050;-77
2021/07/26 04:46:27;;;;;;;10.60;2.33;;;;;;;13.29;100.00;99290.34;5124475;27;20051;-78
2021/07/26 04:49:30;;;;;;;5.55;1.25;;;;;;;13.36;100.00;99292.63;5129023;27;20509;-77
2021/07/26 04:52:33;;;;;;;5.65;2.70;;;;;;;13.36;100.00;99293.38;5133132;27;20058;-78
2021/07/26 04:55:37;;;;;;;15.18;2.38;;;;;;;13.38;100.00;99293.63;5133790;27;20042;-77
2021/07/26 04:58:40;;;;;;;6.75;2.08;;;;;;;13.34;100.00;99293.13;5133256;27;20038;-76
2021/07/26 05:01:44;;;;;;;3.95;1.55;;;;;;;13.29;100.00;99293.91;5133341;27;20038;-78
2021/07/26 05:04:47;;;;;;;4.93;2.03;;;;;;;13.28;100.00;99294.38;5133610;28;20502;-78
2021/07/26 05:07:50;;;;;;;14.23;2.28;;;;;;;13.30;100.00;99298.22;5133429;28;20104;-78
2021/07/26 05:10:55;;;;;;;9.68;2.67;;;;;;;13.33;100.00;99307.63;5124078;28;20046;-78
2021/07/26 05:13:58;;;;;;;5.63;1.65;;;;;;;13.39;100.00;99297.97;5129775;28;20050;-78
2021/07/26 05:17:02;;;;;;;8.15;1.73;;;;;;;13.46;100.00;99300.25;5112995;28;20047;-78
2021/07/26 05:20:06;;;;;;;4.72;1.15;;;;;;;13.55;100.00;99302.81;5112939;28;20051;-78
2021/07/26 05:23:10;;;;;;;5.90;1.95;;;;;;;13.57;100.00;99300.25;5112511;28;20042;-78
2021/07/26 05:26:14;;;;;;;5.45;2.22;;;;;;;13.54;100.00;99290.06;5112546;28;20046;-77
2021/07/26 05:29:17;;;;;;;11.43;1.88;;;;;;;13.52;100.00;99295.41;5111646;28;20062;-78
2021/07/26 05:32:21;;;;;;;7.30;1.77;;;;;;;13.50;100.00;99306.34;5112773;28;20066;-78
2021/07/26 05:35:24;;;;;;;13.82;2.67;;;;;;;13.49;100.00;99299.22;5112672;28;20055;-78
2021/07/26 05:38:27;;;;;;;6.40;2.15;;;;;;;13.52;100.00;99292.63;5111527;28;20043;-77
2021/07/26 05:41:30;;;;;;;5.10;2.22;;;;;;;13.55;100.00;99302.81;5112606;28;20518;-78
2021/07/26 05:44:41;;;;;;;15.60;2.63;;;;;;;13.59;100.00;99294.91;5111978;28;20058;-78
2021/07/26 05:47:49;;;;;;;7.93;2.77;;;;;;;13.73;100.00;99309.16;5112109;28;20047;-77
2021/07/26 05:50:53;;;;;;;6.85;1.80;;;;;;;13.80;100.00;99311.41;5111645;28;20042;-78
2021/07/26 05:53:56;;;;;;;4.90;2.38;;;;;;;13.87;100.00;99299.69;5115555;28;20419;-77
2021/07/26 05:57:03;;;;;;;8.05;2.97;;;;;;;13.95;100.00;99295.09;5116309;28;20522;-76
2021/07/26 06:00:10;;;;;;;12.00;2.53;;;;;;;14.04;100.00;99298.41;5116280;28;20043;-77
2021/07/26 06:03:14;;;;;;;8.85;2.67;;;;;;;14.14;100.00;99307.31;5116092;28;20043;-77
2021/07/26 06:06:17;;;;;;;10.98;2.58;;;;;;;14.21;100.00;99304.72;5116618;28;20066;-77
2021/07/26 06:09:22;;;;;;;11.38;2.63;;;;;;;14.32;100.00;99306.75;5116237;28;20396;-77
2021/07/26 06:12:27;;;;;;;9.05;2.50;;;;;;;14.40;100.00;99297.28;5115867;28;20043;-77
2021/07/26 06:15:31;;;;;;;17.80;3.47;;;;;;;14.55;100.00;99301.84;5115912;28;20046;-77
2021/07/26 06:18:35;;;;;;;10.35;2.88;;;;;;;14.76;100.00;99312.19;5116233;28;20050;-77
2021/07/26 06:21:41;;;;;;;9.00;3.20;;;;;;;14.95;100.00;99307.47;5154075;27;20054;-75
2021/07/26 06:24:44;;;;;;;13.90;2.72;;;;;;;15.13;100.00;99306.88;5136631;27;20042;-75
2021/07/26 06:27:47;;;;;;;15.35;3.70;;;;;;;15.27;100.00;99287.38;5134611;27;20109;-75
2021/07/26 06:30:52;;;;;;;13.05;3.10;;;;;;;15.39;100.00;99294.44;5136291;27;20403;-75
2021/07/26 06:33:55;;;;;;;6.43;2.13;;;;;;;15.48;100.00;99296.94;5136219;27;20042;-75
2021/07/26 06:36:58;;;;;;;10.93;4.00;;;;;;;15.60;100.00;99292.75;5136101;27;20046;-75
2021/07/26 06:40:06;;;;;;;10.70;3.45;;;;;;;15.68;100.00;99294.44;5115765;28;20042;-75
2021/07/26 06:43:09;;;;;;;13.23;3.88;;;;;;;15.73;100.00;99290.84;5115352;28;20059;-75
2021/07/26 06:46:12;;;;;;;9.65;3.95;;;;;;;15.79;100.00;99293.59;5115562;28;20050;-77
2021/07/26 06:49:16;;;;;;;15.93;4.53;;;;;;;15.90;100.00;99293.47;5115508;28;20070;-75
2021/07/26 06:52:19;;;;;;;14.63;3.70;;;;;;;15.97;100.00;99301.34;5115414;28;20062;-75
2021/07/26 06:55:23;;;;;;;9.07;3.38;;;;;;;15.96;100.00;99305.41;5115134;28;20035;-75
2021/07/26 06:58:26;;;;;;;11.55;2.30;;;;;;;15.89;100.00;99306.00;5114891;28;20058;-75
2021/07/26 07:01:29;;;;;;;18.58;3.35;;;;;;;15.83;100.00;99310.94;5115102;28;20042;-77
2021/07/26 07:04:33;;;;;;;15.10;5.05;;;;;;;15.88;100.00;99307.28;5114602;28;20050;-75
2021/07/26 07:07:37;;;;;;;12.60;2.97;;;;;;;16.05;100.00;99307.88;5114894;28;20038;-77
2021/07/26 07:10:40;;;;;;;16.63;3.35;;;;;;;16.19;100.00;99315.16;5114615;28;20047;-77
2021/07/26 07:13:45;;;;;;;9.32;2.75;;;;;;;16.32;100.00;99312.44;5114190;28;20047;-75
2021/07/26 07:16:48;;;;;;;13.95;4.03;;;;;;;16.38;100.00;99321.56;5114811;28;20594;-74
2021/07/26 07:19:52;;;;;;;11.95;3.42;;;;;;;16.46;100.00;99311.25;5114881;28;20038;-74
2021/07/26 07:22:55;;;;;;;15.43;4.65;;;;;;;16.57;100.00;99316.78;5114684;28;20511;-77
2021/07/26 07:25:59;;;;;;;11.18;3.08;;;;;;;16.80;100.00;99322.13;5114977;28;20051;-77
2021/07/26 07:29:04;;;;;;;10.80;3.28;;;;;;;17.11;100.00;99313.75;5114669;28;20043;-75
2021/07/26 07:32:12;;;;;;;14.10;3.55;;;;;;;17.40;100.00;99312.03;5114316;28;20514;-74
2021/07/26 07:35:17;;;;;;;16.38;4.32;;;;;;;17.63;100.00;99318.84;5114367;28;20050;-74
2021/07/26 07:38:21;;;;;;;10.88;2.75;;;;;;;17.70;100.00;99312.59;5124020;27;20510;-75
2021/07/26 07:41:26;;;;;;;9.82;3.08;;;;;;;17.72;100.00;99301.53;5127186;27;20054;-74
2021/07/26 07:44:32;;;;;;;5.20;1.95;;;;;;;17.78;100.00;99305.03;5114239;28;20058;-74
2021/07/26 07:47:35;;;;;;;15.68;3.45;;;;;;;17.86;100.00;99305.94;5113523;28;20436;-75
2021/07/26 07:50:39;;;;;;;10.80;3.13;;;;;;;17.78;100.00;99302.19;5113971;28;20062;-76
2021/07/26 07:53:44;;;;;;;10.25;2.17;;;;;;;17.61;100.00;99298.91;5113973;28;20051;-75
2021/07/26 07:56:51;;;;;;;10.15;2.75;;;;;;;17.45;100.00;99299.94;5114137;28;20100;-75
2021/07/26 07:59:55;;;;;;;18.58;3.03;;;;;;;17.34;100.00;99300.09;5114138;28;20051;-75
2021/07/26 08:02:59;;;;;;;6.30;2.65;;;;;;;17.29;100.00;99303.75;5113659;28;20055;-75
2021/07/26 08:06:03;;;;;;;11.90;3.22;;;;;;;17.34;100.00;99303.69;5114016;28;20051;-75
2021/07/26 08:09:07;;;;;;;13.43;2.13;;;;;;;17.56;100.00;99305.41;5113951;28;20046;-75
2021/07/26 08:12:10;;;;;;;13.68;2.25;;;;;;;17.92;100.00;99289.69;5113974;28;20368;-75
2021/07/26 08:15:15;;;;;;;13.13;2.47;;;;;;;18.41;100.00;99294.91;5122330;27;20053;-74
2021/07/26 08:18:19;;;;;;;7.65;2.55;;;;;;;18.59;100.00;99277.09;5131980;27;20071;-75
2021/07/26 08:21:23;;;;;;;12.15;3.00;;;;;;;18.71;100.00;99284.78;5122774;27;20042;-75
2021/07/26 08:24:26;;;;;;;4.47;1.50;;;;;;;19.06;100.00;99286.31;5117827;28;20050;-76
2021/07/26 08:27:30;;;;;;;7.57;2.40;;;;;;;19.41;100.00;99276.53;5123069;28;20047;-75
2021/07/26 08:30:36;;;;;;;7.53;1.73;;;;;;;19.64;100.00;99274.69;5125756;27;20046;-75
2021/07/26 08:33:40;;;;;;;6.20;1.58;;;;;;;19.79;100.00;99279.72;5130830;27;20046;-76
2021/07/26 08:36:43;;;;;;;7.60;2.08;;;;;;;19.80;100.00;99275.56;5133714;27;20054;-76
2021/07/26 08:39:47;;;;;;;7.57;2.17;;;;;;;19.80;100.00;99278.38;5133737;27;20050;-76
2021/07/26 08:42:51;;;;;;;4.05;1.80;;;;;;;19.60;100.00;99277.84;5133492;27;20046;-75
2021/07/26 08:45:54;;;;;;;5.22;1.20;;;;;;;19.49;100.00;99280.22;5133793;27;20058;-75
2021/07/26 08:48:58;;;;;;;4.47;1.13;;;;;;;19.75;100.00;99270.84;5133579;27;20054;-76
2021/07/26 08:52:03;;;;;;;4.95;1.55;;;;;;;19.88;100.00;99274.31;5133267;27;20062;-76
2021/07/26 08:55:11;;;;;;;6.95;1.60;;;;;;;20.15;100.00;99270.00;5133850;27;20050;-76
2021/07/26 08:58:15;;;;;;;5.97;1.48;;;;;;;20.47;100.00;99272.44;5133557;27;20054;-76
2021/07/26 09:01:20;;;;;;;3.97;0.52;;;;;;;20.46;100.00;99268.13;5133515;27;20035;-76
2021/07/26 09:04:23;;;;;;;4.43;1.13;;;;;;;20.59;100.00;99262.34;5133865;27;20054;-75
2021/07/26 09:07:27;;;;;;;5.03;0.80;;;;;;;20.85;100.00;99267.72;5133549;28;20510;-76
2021/07/26 09:10:35;;;;;;;3.20;0.73;;;;;;;20.89;100.00;99273.78;5133567;28;20396;-77
2021/07/26 09:13:42;;;;;;;6.85;1.10;;;;;;;21.08;100.00;99274.25;5133106;28;20054;-76
2021/07/26 09:16:55;;;;;;;5.10;0.88;;;;;;;21.00;100.00;99275.50;5081078;28;20110;-77
2021/07/26 09:19:59;;;;;;;5.32;1.40;;;;;;;21.09;100.00;99275.00;5088900;28;20342;-76
2021/07/26 09:23:16;;;;;;;7.43;1.80;;;;;;;21.08;100.00;99276.31;5089003;28;20720;-76
2021/07/26 09:26:29;;;;;;;6.28;1.88;;;;;;;21.27;100.00;99273.88;5089425;28;20055;-76
2021/07/26 09:29:34;;;;;;;4.55;1.00;;;;;;;21.34;100.00;99269.56;5091374;28;20059;-77
2021/07/26 09:32:38;;;;;;;2.60;1.25;;;;;;;21.16;100.00;99279.16;5093661;28;20530;-76
2021/07/26 09:35:43;;;;;;;5.03;1.08;;;;;;;20.84;100.00;99271.09;5088281;28;20059;-76
2021/07/26 09:38:52;;;;;;;5.18;2.03;;;;;;;20.58;100.00;99274.19;5089702;28;20782;-75
2021/07/26 09:41:58;;;;;;;7.72;1.80;;;;;;;20.65;100.00;99271.41;5087815;28;20301;-73
2021/07/26 09:45:23;;;;;;;9.35;2.20;;;;;;;21.07;100.00;99267.03;5083266;28;20055;-73
2021/07/26 09:48:29;;;;;;;8.07;1.70;;;;;;;21.32;100.00;99266.53;5083979;28;20051;-75
2021/07/26 09:51:33;;;;;;;4.85;1.73;;;;;;;21.38;100.00;99267.09;5082878;28;20622;-75
2021/07/26 09:54:48;;;;;;;7.25;2.30;;;;;;;21.43;100.00;99266.94;5082307;28;20260;-74
2021/07/26 09:57:52;;;;;;;10.35;1.75;;;;;;;21.59;100.00;99264.88;5085806;28;20506;-77
2021/07/26 10:00:55;;;;;;;8.82;3.38;;;;;;;21.45;100.00;99257.88;5085436;28;20050;-77
2021/07/26 10:03:59;;;;;;;8.43;2.55;;;;;;;21.53;100.00;99267.88;5085079;28;20063;-75
2021/07/26 10:07:03;;;;;;;11.50;3.17;;;;;;;21.79;100.00;99261.06;5086105;28;20058;-76
2021/07/26 10:10:08;;;;;;;8.98;3.00;;;;;;;22.18;100.00;99260.50;5080799;28;20043;-76
2021/07/26 10:13:11;;;;;;;15.55;2.78;;;;;;;22.25;100.00;99259.72;5083115;28;20046;-76
2021/07/26 10:16:15;;;;;;;8.52;2.30;;;;;;;21.84;100.00;99257.34;5097693;27;20055;-76
2021/07/26 10:19:19;;;;;;;6.85;2.38;;;;;;;21.45;100.00;99255.03;5081607;28;20066;-75
2021/07/26 10:22:26;;;;;;;9.25;2.40;;;;;;;21.33;100.00;99259.56;5083494;28;20054;-77
2021/07/26 10:25:46;;;;;;;8.70;1.60;;;;;;;21.19;100.00;99255.38;5082100;28;20873;-75
2021/07/26 10:28:56;;;;;;;7.75;2.08;;;;;;;21.55;100.00;99265.25;5083624;28;20039;-77
2021/07/26 10:32:20;;;;;;;;;;;;;;;22.39;100.00;99260.28;5092954;27;20051;-76
2021/07/26 10:35:32;;;;;;;5.55;1.30;;;;;;;22.91;100.00;99256.50;5092398;27;19915;-72
2021/07/26 10:38:49;;;;;;;4.72;1.83;;;;;;;23.15;100.00;99257.88;5090629;27;20061;-73
2021/07/26 10:41:55;;;;;;;10.02;1.45;;;;;;;22.86;100.00;99256.69;5091442;27;20873;-74
2021/07/26 10:45:00;;;;;;;5.45;1.50;;;;;;;22.44;100.00;99256.44;5092454;27;20054;-72
2021/07/26 10:48:20;;;;;;;3.85;1.40;;;;;;;22.48;100.00;99246.22;5098066;27;20074;-74
2021/07/26 10:51:42;;;;;;;5.90;1.48;;;;;;;23.08;100.00;99244.47;5096902;27;20059;-73
2021/07/26 10:55:10;;;;;;;5.13;0.90;;;;;;;23.44;100.00;99241.97;5081666;28;20051;-74
2021/07/26 10:58:39;;;;;;;2.55;0.70;;;;;;;23.19;100.00;99241.94;5085191;28;20141;-76
2021/07/26 11:02:03;;;;;;;3.10;0.60;;;;;;;22.85;100.00;99238.16;5079932;28;20066;-76
2021/07/26 11:05:40;;;;;;;3.53;1.13;;;;;;;22.53;100.00;99233.91;5095075;27;20042;-76
2021/07/26 11:08:45;;;;;;;3.55;0.77;;;;;;;22.73;100.00;99231.41;5123926;27;20055;-75
2021/07/26 11:13:04;;;;;;;4.97;1.20;;;;;;;23.84;100.00;99216.25;5068443;27;20391;-74
2021/07/26 11:16:07;;;;;;;3.83;1.38;;;;;;;24.19;100.00;99220.63;5067432;28;20056;-77
2021/07/26 11:19:40;;;;;;;2.58;0.38;;;;;;;24.22;100.00;99213.03;5068808;28;20071;-74
2021/07/26 11:22:46;;;;;;;2.88;0.82;;;;;;;24.51;100.00;99214.03;5066981;28;20389;-72
2021/07/26 11:25:50;;;;;;;3.80;0.98;;;;;;;24.69;100.00;99202.00;5068933;28;20056;-72
2021/07/26 11:28:58;;;;;;;3.78;1.05;;;;;;;24.74;100.00;99214.47;5068695;28;20056;-73
2021/07/26 11:32:02;;;;;;;3.25;0.45;;;;;;;24.71;100.00;99201.44;5068672;28;20052;-73
2021/07/26 11:35:06;;;;;;;2.58;0.90;;;;;;;24.60;100.00;99196.28;5069357;28;20404;-73
2021/07/26 11:38:09;;;;;;;8.90;1.52;;;;;;;24.72;100.00;99188.69;5068348;28;20056;-74
2021/07/26 11:41:17;;;;;;;4.43;1.15;;;;;;;24.92;100.00;99190.34;5067731;28;20060;-77
2021/07/26 11:44:27;;;;;;;2.97;0.73;;;;;;;24.59;100.00;99192.66;5067260;28;20056;-76
2021/07/26 11:47:43;;;;;;;6.25;0.80;;;;;;;24.06;100.00;99186.84;5048197;28;20052;-74
2021/07/26 11:50:46;;;;;;;1.48;0.32;;;;;;;23.58;100.00;99194.13;5046791;28;20048;-75
2021/07/26 11:54:05;;;;;;;4.40;0.73;;;;;;;23.20;100.00;99185.84;5048873;28;20489;-73
2021/07/26 11:57:10;;;;;;;2.47;0.70;;;;;;;22.95;100.00;99185.84;5063589;28;20052;-75
2021/07/26 12:00:14;;;;;;;3.47;0.82;;;;;;;22.91;100.00;99190.44;5048498;28;20052;-74
2021/07/26 12:03:19;;;;;;;8.18;1.05;;;;;;;22.81;100.00;99203.72;5048441;28;20052;-77
2021/07/26 12:06:22;;;;;;;3.72;0.98;;;;;;;22.61;100.00;99197.75;5056299;28;20056;-76
2021/07/26 12:09:27;;;;;;;1.50;0.65;;;;;;;22.57;100.00;99191.69;5051456;28;20060;-77
2021/07/26 12:12:39;;;;;;;4.28;0.63;;;;;;;23.04;100.00;99181.63;5047474;28;20560;-77
2021/07/26 12:15:45;;;;;;;1.77;0.68;;;;;;;23.44;100.00;99187.97;5051024;28;20072;-76
2021/07/26 12:18:49;;;;;;;2.38;0.40;;;;;;;23.81;100.00;99172.66;5065980;28;20051;-75
2021/07/26 12:21:52;;;;;;;2.80;0.73;;;;;;;23.99;100.00;99174.19;5059030;28;20043;-76
2021/07/26 12:25:00;;;;;;;2.33;0.98;;;;;;;23.55;100.00;99187.50;5035934;28;20057;-76
2021/07/26 12:28:04;;;;;;;5.00;0.75;;;;;;;23.58;100.00;99177.81;5034295;28;20052;-74
2021/07/26 12:31:27;;;;;;;1.40;0.55;;;;;;;24.04;100.00;99176.03;5034213;28;20064;-75
2021/07/26 12:34:31;;;;;;;2.05;0.98;;;;;;;24.55;100.00;99175.25;5034394;28;20053;-74
2021/07/26 12:37:35;;;;;;;2.47;0.75;;;;;;;24.97;100.00;99169.38;5033830;28;20092;-73
2021/07/26 12:40:40;;;;;;;3.05;1.17;;;;;;;24.76;100.00;99166.25;5033482;28;20064;-77
2021/07/26 12:43:47;;;;;;;3.22;0.77;;;;;;;24.55;100.00;99161.03;5032976;28;20048;-77
2021/07/26 12:46:51;;;;;;;4.15;0.32;;;;;;;24.21;100.00;99169.63;5033087;28;20048;-76
2021/07/26 12:49:54;;;;;;;3.25;0.70;;;;;;;24.01;100.00;99173.59;5035510;28;20052;-76
2021/07/26 12:52:58;;;;;;;5.63;1.70;;;;;;;23.57;100.00;99170.63;5039534;28;20067;-77
2021/07/26 12:56:02;;;;;;;3.75;0.65;;;;;;;23.35;100.00;99168.72;5042261;28;20422;-77
2021/07/26 12:59:05;;;;;;;2.50;0.63;;;;;;;23.57;100.00;99164.16;5033354;28;20620;-77
2021/07/26 13:02:08;;;;;;;6.00;0.90;;;;;;;23.70;100.00;99169.53;5033401;28;20068;-77
2021/07/26 13:05:14;;;;;;;2.47;0.47;;;;;;;23.85;100.00;99163.72;5033404;28;20056;-76
2021/07/26 13:08:19;;;;;;;6.00;0.63;;;;;;;24.16;100.00;99149.94;5033228;28;20060;-76
2021/07/26 13:11:23;;;;;;;2.55;0.40;;;;;;;24.02;100.00;99158.78;5032739;28;20060;-77
2021/07/26 13:14:26;;;;;;;4.10;1.02;;;;;;;23.74;100.00;99161.34;5035356;28;20409;-77
2021/07/26 13:17:30;;;;;;;5.35;0.98;;;;;;;23.48;100.00;99162.72;5052565;28;20056;-77
2021/07/26 13:20:34;;;;;;;3.97;1.20;;;;;;;23.74;100.00;99155.66;5052608;28;20048;-77
2021/07/26 13:23:37;;;;;;;3.90;1.00;;;;;;;24.08;100.00;99150.03;5052644;28;20055;-77
2021/07/26 13:26:40;;;;;;;3.60;1.40;;;;;;;23.66;100.00;99152.91;5052062;28;20056;-77
2021/07/26 13:29:44;;;;;;;2.35;1.02;;;;;;;23.46;100.00;99156.88;5052633;28;20052;-77
2021/07/26 13:32:47;;;;;;;3.15;1.02;;;;;;;23.34;100.00;99156.63;5052569;28;20052;-77
2021/07/26 13:35:50;;;;;;;5.97;0.82;;;;;;;23.36;100.00;99150.34;5051782;28;20052;-77
2021/07/26 13:38:54;;;;;;;4.80;1.02;;;;;;;23.86;100.00;99160.28;5052720;28;20055;-77
2021/07/26 13:41:57;;;;;;;2.67;0.98;;;;;;;23.86;100.00;99163.16;5052395;28;20060;-77
2021/07/26 13:45:01;;;;;;;5.40;0.73;;;;;;;23.74;100.00;99158.50;5052250;28;20052;-78
2021/07/26 13:48:08;;;;;;;1.70;0.88;;;;;;;23.50;100.00;99156.50;5052517;28;20056;-79
2021/07/26 13:51:12;;;;;;;3.90;0.88;;;;;;;23.46;100.00;99154.03;5052811;28;20052;-78
2021/07/26 13:54:15;;;;;;;2.88;0.85;;;;;;;23.89;100.00;99167.66;5054555;28;20524;-79
2021/07/26 13:57:19;;;;;;;3.42;0.95;;;;;;;24.02;100.00;99169.41;5053001;28;20060;-78
2021/07/26 14:00:23;;;;;;;4.55;0.43;;;;;;;24.23;100.00;99154.78;5051768;28;20060;-78
2021/07/26 14:03:28;;;;;;;4.55;0.77;;;;;;;24.21;100.00;99168.84;5051548;28;20405;-78
2021/07/26 14:06:31;;;;;;;4.60;1.10;;;;;;;23.97;100.00;99168.31;5051587;28;20055;-78
2021/07/26 14:09:35;;;;;;;5.28;1.05;;;;;;;23.93;100.00;99165.13;5051644;28;20401;-78
2021/07/26 14:12:39;;;;;;;4.28;0.95;;;;;;;24.32;100.00;99159.81;5051242;28;20063;-78
2021/07/26 14:15:42;;;;;;;3.15;1.42;;;;;;;24.68;100.00;99159.91;5050693;28;20393;-78
2021/07/26 14:18:46;;;;;;;6.93;0.95;;;;;;;24.73;100.00;99153.91;5051652;28;20052;-78
2021/07/26 14:21:49;;;;;;;2.90;1.10;;;;;;;24.51;100.00;99152.16;5051606;28;20056;-78
2021/07/26 14:24:52;;;;;;;3.63;0.82;;;;;;;24.46;100.00;99143.88;5051091;28;20060;-73
2021/07/26 14:27:56;;;;;;;2.00;0.60;;;;;;;24.30;100.00;99148.25;5051243;28;20056;-77